createdAt,value
2019-05-09T00:00:53.975Z,90.16
2019-05-09T00:01:54.276Z,90.16
2019-05-09T00:02:54.127Z,90.36
2019-05-09T00:03:54.435Z,90.47
2019-05-09T00:04:53.928Z,90.01
2019-05-09T00:05:54.283Z,89.75
2019-05-09T00:06:54.464Z,90.26
2019-05-09T00:07:53.940Z,90.06
2019-05-09T00:08:53.888Z,89.85
2019-05-09T00:09:53.876Z,90.12
2019-05-09T00:10:53.860Z,89.64
2019-05-09T00:11:53.851Z,90.16
2019-05-09T00:12:54.110Z,90.16
2019-05-09T00:13:54.006Z,90.26
2019-05-09T00:14:54.094Z,90.57
2019-05-09T00:15:54.265Z,90.16
2019-05-09T00:16:53.797Z,90.78
2019-05-09T00:17:53.789Z,90.26
2019-05-09T00:18:54.272Z,90.36
2019-05-09T00:19:53.976Z,90.78
2019-05-09T00:20:54.047Z,90.67
2019-05-09T00:21:54.137Z,91.13
2019-05-09T00:22:53.977Z,90.57
2019-05-09T00:23:54.205Z,90.61
2019-05-09T00:24:54.039Z,91.02
2019-05-09T00:25:53.936Z,90.92
2019-05-09T00:26:53.694Z,91.02
2019-05-09T00:27:53.757Z,90.92
2019-05-09T00:28:53.667Z,91.08
2019-05-09T00:29:53.654Z,91.23
2019-05-09T00:30:54.153Z,91.02
2019-05-09T00:31:54.135Z,90.51
2019-05-09T00:32:53.627Z,90.51
2019-05-09T00:33:53.674Z,90.26
2019-05-09T00:34:53.607Z,91.13
2019-05-09T00:35:53.589Z,90.98
2019-05-09T00:36:54.050Z,90.47
2019-05-09T00:37:53.752Z,90.36
2019-05-09T00:38:53.784Z,90.98
2019-05-09T00:39:53.580Z,90.67
2019-05-09T00:40:58.600Z,90.78
2019-05-09T00:41:54.522Z,90.98
2019-05-09T00:42:53.514Z,90.98
2019-05-09T00:43:54.309Z,90.98
2019-05-09T00:44:53.491Z,90.67
2019-05-09T00:45:54.197Z,90.78
2019-05-09T00:46:53.632Z,90.98
2019-05-09T00:47:53.986Z,91.08
2019-05-09T00:48:53.447Z,90.78
2019-05-09T00:49:54.183Z,90.88
2019-05-09T00:50:54.443Z,92.11
2019-05-09T00:51:54.042Z,91.53
2019-05-09T00:52:53.818Z,91.80
2019-05-09T00:53:53.782Z,91.60
2019-05-09T00:54:53.382Z,91.64
2019-05-09T00:55:53.411Z,90.67
2019-05-09T00:56:53.939Z,91.08
2019-05-09T00:57:53.578Z,90.98
2019-05-09T00:58:53.722Z,90.36
2019-05-09T00:59:53.329Z,90.67
2019-05-09T01:00:53.418Z,90.26
2019-05-09T01:01:54.339Z,90.16
2019-05-09T01:02:54.219Z,90.26
2019-05-09T01:03:53.805Z,90.57
2019-05-09T01:04:53.292Z,90.88
2019-05-09T01:05:54.285Z,90.78
2019-05-09T01:06:54.013Z,90.88
2019-05-09T01:07:53.893Z,90.88
2019-05-09T01:08:53.793Z,90.26
2019-05-09T01:09:54.338Z,90.67
2019-05-09T01:11:08.239Z,90.47
2019-05-09T01:11:54.199Z,90.26
2019-05-09T01:12:54.197Z,90.16
2019-05-09T01:13:54.396Z,90.32
2019-05-09T01:14:53.884Z,90.16
2019-05-09T01:15:53.363Z,90.22
2019-05-09T01:16:53.631Z,90.22
2019-05-09T01:17:53.745Z,90.01
2019-05-09T01:18:54.364Z,90.22
2019-05-09T01:19:53.888Z,89.91
2019-05-09T01:20:53.213Z,89.91
2019-05-09T01:21:54.177Z,90.12
2019-05-09T01:22:54.050Z,89.91
2019-05-09T01:23:53.945Z,90.01
2019-05-09T01:24:53.434Z,90.01
2019-05-09T01:25:53.211Z,89.66
2019-05-09T01:26:54.246Z,89.66
2019-05-09T01:27:53.833Z,89.36
2019-05-09T01:28:53.807Z,89.25
2019-05-09T01:29:53.560Z,89.66
2019-05-09T01:30:53.264Z,89.66
2019-05-09T01:31:54.051Z,89.76
2019-05-09T01:32:53.958Z,89.97
2019-05-09T01:33:53.475Z,89.36
2019-05-09T01:34:53.110Z,89.46
2019-05-09T01:35:54.072Z,89.97
2019-05-09T01:36:54.017Z,89.56
2019-05-09T01:37:53.871Z,89.36
2019-05-09T01:38:53.957Z,89.36
2019-05-09T01:39:53.416Z,89.56
2019-05-09T01:40:53.368Z,89.56
2019-05-09T01:41:53.201Z,89.52
2019-05-09T01:42:53.799Z,89.52
2019-05-09T01:43:53.659Z,89.31
2019-05-09T01:44:53.363Z,89.72
2019-05-09T01:45:54.063Z,88.95
2019-05-09T01:46:54.034Z,89.42
2019-05-09T01:47:53.777Z,88.39
2019-05-09T01:48:53.904Z,88.08
2019-05-09T01:49:53.844Z,88.29
2019-05-09T01:50:53.782Z,87.77
2019-05-09T01:51:53.708Z,87.77
2019-05-09T01:52:53.358Z,88.18
2019-05-09T01:53:53.234Z,87.88
2019-05-09T01:54:54.132Z,88.18
2019-05-09T01:55:53.924Z,88.49
2019-05-09T01:56:53.754Z,88.80
2019-05-09T01:57:53.800Z,88.49
2019-05-09T01:58:53.824Z,88.08
2019-05-09T01:59:53.243Z,88.39
2019-05-09T02:00:54.042Z,88.08
2019-05-09T02:01:54.087Z,88.39
2019-05-09T02:02:54.046Z,88.39
2019-05-09T02:03:53.647Z,88.39
2019-05-09T02:04:53.312Z,88.18
2019-05-09T02:05:53.265Z,88.49
2019-05-09T02:06:53.744Z,88.70
2019-05-09T02:07:54.220Z,89.42
2019-05-09T02:08:54.550Z,88.90
2019-05-09T02:09:54.013Z,89.52
2019-05-09T02:10:54.221Z,89.66
2019-05-09T02:11:54.500Z,89.62
2019-05-09T02:12:53.797Z,89.72
2019-05-09T02:13:53.555Z,89.62
2019-05-09T02:14:54.234Z,89.72
2019-05-09T02:15:53.907Z,89.52
2019-05-09T02:16:53.707Z,89.52
2019-05-09T02:18:01.125Z,89.42
2019-05-09T02:18:53.550Z,89.42
2019-05-09T02:19:53.268Z,89.52
2019-05-09T02:20:53.283Z,89.62
2019-05-09T02:21:53.116Z,89.62
2019-05-09T02:22:54.272Z,89.42
2019-05-09T02:23:53.715Z,89.42
2019-05-09T02:24:53.491Z,89.52
2019-05-09T02:25:53.243Z,89.31
2019-05-09T02:26:53.338Z,89.62
2019-05-09T02:27:52.371Z,89.62
2019-05-09T02:28:53.796Z,89.62
2019-05-09T02:29:54.336Z,89.72
2019-05-09T02:30:54.877Z,89.62
2019-05-09T02:31:54.660Z,89.31
2019-05-09T02:32:54.651Z,89.52
2019-05-09T02:33:54.133Z,89.31
2019-05-09T02:34:54.731Z,89.66
2019-05-09T02:35:57.326Z,89.62
2019-05-09T02:36:53.324Z,89.66
2019-05-09T02:37:52.261Z,89.21
2019-05-09T02:38:52.251Z,88.18
2019-05-09T02:39:52.240Z,88.12
2019-05-09T02:40:52.229Z,88.70
2019-05-09T02:42:04.803Z,88.29
2019-05-09T02:42:53.264Z,87.98
2019-05-09T02:43:52.204Z,88.18
2019-05-09T02:44:52.188Z,88.39
2019-05-09T02:45:52.933Z,88.29
2019-05-09T02:46:52.169Z,88.29
2019-05-09T02:47:52.173Z,88.23
2019-05-09T02:48:52.347Z,88.64
2019-05-09T02:49:52.132Z,88.18
2019-05-09T02:50:52.141Z,87.40
2019-05-09T02:51:52.109Z,88.02
2019-05-09T02:52:52.099Z,88.23
2019-05-09T02:53:52.088Z,88.43
2019-05-09T02:54:52.124Z,88.53
2019-05-09T02:55:52.070Z,88.43
2019-05-09T02:56:52.059Z,87.71
2019-05-09T02:57:52.044Z,87.82
2019-05-09T02:58:52.033Z,88.43
2019-05-09T02:59:52.030Z,88.33
2019-05-09T03:00:52.055Z,87.61
2019-05-09T03:01:52.001Z,87.82
2019-05-09T03:02:52.007Z,87.92
2019-05-09T03:03:51.978Z,88.02
2019-05-09T03:04:51.968Z,87.71
2019-05-09T03:05:51.956Z,87.92
2019-05-09T03:06:52.139Z,87.96
2019-05-09T03:07:51.940Z,87.65
2019-05-09T03:08:51.941Z,88.47
2019-05-09T03:09:51.914Z,88.27
2019-05-09T03:10:51.908Z,88.68
2019-05-09T03:11:51.894Z,88.78
2019-05-09T03:12:51.931Z,89.70
2019-05-09T03:13:51.869Z,88.98
2019-05-09T03:14:51.872Z,89.81
2019-05-09T03:15:51.848Z,88.68
2019-05-09T03:16:51.841Z,88.89
2019-05-09T03:17:51.834Z,88.57
2019-05-09T03:18:51.848Z,88.68
2019-05-09T03:19:51.804Z,89.19
2019-05-09T03:20:51.809Z,89.29
2019-05-09T03:21:51.788Z,88.78
2019-05-09T03:22:51.773Z,88.53
2019-05-09T03:23:51.760Z,88.12
2019-05-09T03:24:51.792Z,88.47
2019-05-09T03:25:51.745Z,88.89
2019-05-09T03:26:51.744Z,88.74
2019-05-09T03:27:51.719Z,88.78
2019-05-09T03:28:51.704Z,88.68
2019-05-09T03:29:51.696Z,89.29
2019-05-09T03:30:51.743Z,89.60
2019-05-09T03:31:51.675Z,89.36
2019-05-09T03:32:51.677Z,89.70
2019-05-09T03:33:51.652Z,89.60
2019-05-09T03:34:51.639Z,89.70
2019-05-09T03:35:51.628Z,89.50
2019-05-09T03:36:51.669Z,89.70
2019-05-09T03:37:51.615Z,89.50
2019-05-09T03:38:51.619Z,90.01
2019-05-09T03:39:51.584Z,89.60
2019-05-09T03:40:51.576Z,90.36
2019-05-09T03:41:51.564Z,90.16
2019-05-09T03:42:51.596Z,90.47
2019-05-09T03:43:51.541Z,90.32
2019-05-09T03:44:51.552Z,90.78
2019-05-09T03:45:51.522Z,90.53
2019-05-09T03:46:51.512Z,90.83
2019-05-09T03:47:51.502Z,90.83
2019-05-09T03:48:51.518Z,91.29
2019-05-09T03:49:51.479Z,91.29
2019-05-09T03:50:51.477Z,91.70
2019-05-09T03:51:51.454Z,91.60
2019-05-09T03:52:51.443Z,91.60
2019-05-09T03:53:51.440Z,91.80
2019-05-09T03:54:51.470Z,91.91
2019-05-09T03:55:51.410Z,91.39
2019-05-09T03:56:51.420Z,91.49
2019-05-09T03:57:51.389Z,91.91
2019-05-09T03:58:51.379Z,91.80
2019-05-09T03:59:51.368Z,91.70
2019-05-09T04:00:51.405Z,92.01
2019-05-09T04:01:51.347Z,92.01
2019-05-09T04:02:51.354Z,92.32
2019-05-09T04:03:51.323Z,91.91
2019-05-09T04:04:51.317Z,91.91
2019-05-09T04:05:59.050Z,92.01
2019-05-09T04:06:52.347Z,91.80
2019-05-09T04:07:51.283Z,91.91
2019-05-09T04:08:53.947Z,92.11
2019-05-09T04:09:51.268Z,91.80
2019-05-09T04:10:51.278Z,92.11
2019-05-09T04:11:51.256Z,92.01
2019-05-09T04:12:55.812Z,92.11
2019-05-09T04:13:52.233Z,92.36
2019-05-09T04:14:51.208Z,92.11
2019-05-09T04:15:51.199Z,91.91
2019-05-09T04:16:51.188Z,92.32
2019-05-09T04:17:51.197Z,92.52
2019-05-09T04:18:51.248Z,92.32
2019-05-09T04:19:51.186Z,92.32
2019-05-09T04:20:51.140Z,92.42
2019-05-09T04:21:51.140Z,92.63
2019-05-09T04:22:51.120Z,92.32
2019-05-09T04:23:51.108Z,92.63
2019-05-09T04:24:51.145Z,92.11
2019-05-09T04:25:51.087Z,92.27
2019-05-09T04:26:51.079Z,92.32
2019-05-09T04:27:51.065Z,91.97
2019-05-09T04:28:51.052Z,91.66
2019-05-09T04:29:51.048Z,91.66
2019-05-09T04:30:51.070Z,91.66
2019-05-09T04:31:51.039Z,91.04
2019-05-09T04:32:51.043Z,91.25
2019-05-09T04:33:50.997Z,91.04
2019-05-09T04:34:51.005Z,90.94
2019-05-09T04:35:50.977Z,90.38
2019-05-09T04:36:51.176Z,90.48
2019-05-09T04:37:50.975Z,90.69
2019-05-09T04:38:50.944Z,90.38
2019-05-09T04:39:53.979Z,90.28
2019-05-09T04:40:51.942Z,90.38
2019-05-09T04:41:55.130Z,89.87
2019-05-09T04:42:51.943Z,89.97
2019-05-09T04:43:50.943Z,89.97
2019-05-09T04:44:57.642Z,89.56
2019-05-09T04:45:53.483Z,89.46
2019-05-09T04:46:54.034Z,89.42
2019-05-09T04:47:51.859Z,89.11
2019-05-09T04:48:54.073Z,89.62
2019-05-09T04:49:51.832Z,89.21
2019-05-09T04:50:50.812Z,89.62
2019-05-09T04:51:50.806Z,89.62
2019-05-09T04:52:50.792Z,89.56
2019-05-09T04:53:50.785Z,88.80
2019-05-09T04:54:50.830Z,88.29
2019-05-09T04:55:50.762Z,88.90
2019-05-09T04:56:53.665Z,89.36
2019-05-09T04:57:50.748Z,88.95
2019-05-09T04:58:50.745Z,89.31
2019-05-09T04:59:50.724Z,89.21
2019-05-09T05:00:50.795Z,88.59
2019-05-09T05:01:50.765Z,88.18
2019-05-09T05:02:50.710Z,88.29
2019-05-09T05:03:50.676Z,88.29
2019-05-09T05:04:50.661Z,87.98
2019-05-09T05:05:50.662Z,87.77
2019-05-09T05:06:50.695Z,87.88
2019-05-09T05:07:50.627Z,87.88
2019-05-09T05:08:50.618Z,87.77
2019-05-09T05:09:50.614Z,87.67
2019-05-09T05:10:50.599Z,87.67
2019-05-09T05:11:50.582Z,87.46
2019-05-09T05:12:50.605Z,87.57
2019-05-09T05:13:50.561Z,87.77
2019-05-09T05:14:50.552Z,87.88
2019-05-09T05:15:50.546Z,87.77
2019-05-09T05:16:53.117Z,88.18
2019-05-09T05:17:50.524Z,87.98
2019-05-09T05:18:50.576Z,88.18
2019-05-09T05:19:50.505Z,88.08
2019-05-09T05:20:50.533Z,87.77
2019-05-09T05:21:50.494Z,87.98
2019-05-09T05:22:50.471Z,87.88
2019-05-09T05:23:50.499Z,87.88
2019-05-09T05:24:50.480Z,87.84
2019-05-09T05:25:50.435Z,87.63
2019-05-09T05:26:50.436Z,87.84
2019-05-09T05:27:50.412Z,87.49
2019-05-09T05:28:50.423Z,87.49
2019-05-09T05:29:50.403Z,86.05
2019-05-09T05:30:50.435Z,86.52
2019-05-09T05:31:50.393Z,86.25
2019-05-09T05:32:50.390Z,86.01
2019-05-09T05:33:53.733Z,85.85
2019-05-09T05:34:50.336Z,85.85
2019-05-09T05:35:50.324Z,86.11
2019-05-09T05:36:50.368Z,86.32
2019-05-09T05:37:50.317Z,86.22
2019-05-09T05:38:50.291Z,86.42
2019-05-09T05:39:50.327Z,85.91
2019-05-09T05:40:50.276Z,86.22
2019-05-09T05:41:50.261Z,86.48
2019-05-09T05:42:50.289Z,86.28
2019-05-09T05:43:50.292Z,85.93
2019-05-09T05:44:50.226Z,85.63
2019-05-09T05:45:50.223Z,85.63
2019-05-09T05:46:50.934Z,84.77
2019-05-09T05:47:50.188Z,84.25
2019-05-09T05:48:50.246Z,84.56
2019-05-09T05:49:50.216Z,84.42
2019-05-09T05:50:50.178Z,83.70
2019-05-09T05:51:50.169Z,83.50
2019-05-09T05:52:50.153Z,83.81
2019-05-09T05:53:50.124Z,82.95
2019-05-09T05:54:50.174Z,82.75
2019-05-09T05:55:52.669Z,83.39
2019-05-09T05:56:50.092Z,83.25
2019-05-09T05:57:50.093Z,83.56
2019-05-09T05:58:50.138Z,83.56
2019-05-09T05:59:50.072Z,83.01
2019-05-09T06:00:50.099Z,83.11
2019-05-09T06:01:50.060Z,83.66
2019-05-09T06:02:50.063Z,83.56
2019-05-09T06:03:50.031Z,83.36
2019-05-09T06:04:50.032Z,83.25
2019-05-09T06:05:51.823Z,82.64
2019-05-09T06:06:50.055Z,83.22
2019-05-09T06:07:49.988Z,82.81
2019-05-09T06:08:49.993Z,83.05
2019-05-09T06:09:49.982Z,83.01
2019-05-09T06:10:49.971Z,82.81
2019-05-09T06:11:49.940Z,82.26
2019-05-09T06:12:49.968Z,83.07
2019-05-09T06:13:56.584Z,81.91
2019-05-09T06:14:50.892Z,81.81
2019-05-09T06:15:49.887Z,82.32
2019-05-09T06:16:49.875Z,81.91
2019-05-09T06:17:49.861Z,80.75
2019-05-09T06:18:49.894Z,80.85
2019-05-09T06:19:49.863Z,80.96
2019-05-09T06:20:49.831Z,80.85
2019-05-09T06:21:52.334Z,81.05
2019-05-09T06:22:49.889Z,79.73
2019-05-09T06:23:49.803Z,81.05
2019-05-09T06:24:49.870Z,80.51
2019-05-09T06:25:49.775Z,79.93
2019-05-09T06:26:49.769Z,80.20
2019-05-09T06:27:49.874Z,79.90
2019-05-09T06:28:49.781Z,79.93
2019-05-09T06:29:49.736Z,81.02
2019-05-09T06:30:49.782Z,80.82
2019-05-09T06:31:49.713Z,80.10
2019-05-09T06:32:49.705Z,80.41
2019-05-09T06:33:53.552Z,81.43
2019-05-09T06:34:49.744Z,80.98
2019-05-09T06:35:49.662Z,79.96
2019-05-09T06:36:49.681Z,79.25
2019-05-09T06:37:49.648Z,79.04
2019-05-09T06:38:49.641Z,78.84
2019-05-09T06:39:49.627Z,79.35
2019-05-09T06:40:49.891Z,79.86
2019-05-09T06:41:49.664Z,79.66
2019-05-09T06:42:49.726Z,79.14
2019-05-09T06:43:49.814Z,78.84
2019-05-09T06:44:49.569Z,79.14
2019-05-09T06:45:49.616Z,79.25
2019-05-09T06:46:49.573Z,79.35
2019-05-09T06:47:49.541Z,79.32
2019-05-09T06:48:49.583Z,79.82
2019-05-09T06:49:50.177Z,79.48
2019-05-09T06:50:49.501Z,77.89
2019-05-09T06:51:49.548Z,77.17
2019-05-09T06:52:49.480Z,77.89
2019-05-09T06:53:49.467Z,79.52
2019-05-09T06:54:49.523Z,79.11
2019-05-09T06:55:49.449Z,78.70
2019-05-09T06:56:49.480Z,77.98
2019-05-09T06:57:49.439Z,77.68
2019-05-09T06:58:49.429Z,77.37
2019-05-09T06:59:49.417Z,77.85
2019-05-09T07:00:49.431Z,78.66
2019-05-09T07:01:49.395Z,77.34
2019-05-09T07:02:49.377Z,78.26
2019-05-09T07:03:49.370Z,77.98
2019-05-09T07:04:49.370Z,78.09
2019-05-09T07:05:49.395Z,77.78
2019-05-09T07:06:49.384Z,77.68
2019-05-09T07:07:49.321Z,77.48
2019-05-09T07:08:49.347Z,79.00
2019-05-09T07:09:49.294Z,78.16
2019-05-09T07:10:49.291Z,77.85
2019-05-09T07:11:49.270Z,77.85
2019-05-09T07:12:49.299Z,77.85
2019-05-09T07:13:49.254Z,77.24
2019-05-09T07:14:49.262Z,76.97
2019-05-09T07:15:49.227Z,77.55
2019-05-09T07:16:49.218Z,78.39
2019-05-09T07:17:49.228Z,77.78
2019-05-09T07:18:49.238Z,77.98
2019-05-09T07:19:49.247Z,77.98
2019-05-09T07:20:49.186Z,77.48
2019-05-09T07:21:49.167Z,77.78
2019-05-09T07:22:49.152Z,77.98
2019-05-09T07:23:49.139Z,77.68
2019-05-09T07:24:49.192Z,78.12
2019-05-09T07:25:49.126Z,78.30
2019-05-09T07:26:49.107Z,77.17
2019-05-09T07:27:49.105Z,77.78
2019-05-09T07:28:49.091Z,77.78
2019-05-09T07:29:49.076Z,77.55
2019-05-09T07:30:49.112Z,77.03
2019-05-09T07:31:49.063Z,77.27
2019-05-09T07:32:49.049Z,77.34
2019-05-09T07:33:49.048Z,77.37
2019-05-09T07:34:49.033Z,76.87
2019-05-09T07:35:49.009Z,77.17
2019-05-09T07:36:49.052Z,76.32
2019-05-09T07:37:49.029Z,75.54
2019-05-09T07:38:48.971Z,75.40
2019-05-09T07:39:48.972Z,76.01
2019-05-09T07:40:48.953Z,75.30
2019-05-09T07:41:48.941Z,75.30
2019-05-09T07:42:48.996Z,74.99
2019-05-09T07:43:48.928Z,75.60
2019-05-09T07:44:52.187Z,74.76
2019-05-09T07:45:48.938Z,74.96
2019-05-09T07:46:48.881Z,73.84
2019-05-09T07:47:48.871Z,73.94
2019-05-09T07:48:48.896Z,73.13
2019-05-09T07:49:48.849Z,73.43
2019-05-09T07:50:48.850Z,73.94
2019-05-09T07:51:48.870Z,73.02
2019-05-09T07:52:48.843Z,73.43
2019-05-09T07:53:48.812Z,73.23
2019-05-09T07:54:48.854Z,73.91
2019-05-09T07:55:48.786Z,73.30
2019-05-09T07:56:48.832Z,73.60
2019-05-09T07:57:55.145Z,72.99
2019-05-09T07:58:49.759Z,73.26
2019-05-09T07:59:48.783Z,73.63
2019-05-09T08:00:48.760Z,72.48
2019-05-09T08:01:48.892Z,71.47
2019-05-09T08:02:48.708Z,72.04
2019-05-09T08:03:49.139Z,68.49
2019-05-09T08:04:49.109Z,70.01
2019-05-09T08:05:48.686Z,69.70
2019-05-09T08:06:48.806Z,70.42
2019-05-09T08:07:48.662Z,70.31
2019-05-09T08:08:48.643Z,70.55
2019-05-09T08:09:48.634Z,70.45
2019-05-09T08:10:48.653Z,70.28
2019-05-09T08:11:48.618Z,72.08
2019-05-09T08:12:48.629Z,71.47
2019-05-09T08:13:48.849Z,70.75
2019-05-09T08:15:06.680Z,70.96
2019-05-09T08:15:49.564Z,70.65
2019-05-09T08:16:48.617Z,69.94
2019-05-09T08:17:48.885Z,70.48
2019-05-09T08:18:48.603Z,70.35
2019-05-09T08:19:48.607Z,70.96
2019-05-09T08:20:48.511Z,70.86
2019-05-09T08:21:48.503Z,70.45
2019-05-09T08:22:57.148Z,70.35
2019-05-09T08:23:49.511Z,69.94
2019-05-09T08:24:48.492Z,70.75
2019-05-09T08:25:48.637Z,70.45
2019-05-09T08:26:48.471Z,70.42
2019-05-09T08:27:48.457Z,71.12
2019-05-09T08:28:48.446Z,70.18
2019-05-09T08:29:48.441Z,70.18
2019-05-09T08:30:48.566Z,68.66
2019-05-09T08:31:48.683Z,69.37
2019-05-09T08:32:48.464Z,69.23
2019-05-09T08:33:48.684Z,68.66
2019-05-09T08:34:48.433Z,69.23
2019-05-09T08:35:52.354Z,69.54
2019-05-09T08:36:48.342Z,69.54
2019-05-09T08:37:48.331Z,69.03
2019-05-09T08:38:48.316Z,68.35
2019-05-09T08:39:48.612Z,68.66
2019-05-09T08:40:48.651Z,70.28
2019-05-09T08:41:48.660Z,69.81
2019-05-09T08:42:48.347Z,70.52
2019-05-09T08:43:48.507Z,70.72
2019-05-09T08:44:48.357Z,70.52
2019-05-09T08:45:48.448Z,70.48
2019-05-09T08:46:48.301Z,69.06
2019-05-09T08:47:48.566Z,70.08
2019-05-09T08:48:48.692Z,69.98
2019-05-09T08:49:49.610Z,70.01
2019-05-09T08:50:48.399Z,70.04
2019-05-09T08:52:06.948Z,70.04
2019-05-09T08:52:49.211Z,70.65
2019-05-09T08:53:48.358Z,70.86
2019-05-09T08:54:48.626Z,70.86
2019-05-09T08:55:48.130Z,70.01
2019-05-09T08:56:48.130Z,70.01
2019-05-09T08:57:48.269Z,69.84
2019-05-09T08:58:48.606Z,70.35
2019-05-09T08:59:50.551Z,70.45
2019-05-09T09:00:49.045Z,70.96
2019-05-09T09:02:10.221Z,71.87
2019-05-09T09:02:49.079Z,71.06
2019-05-09T09:03:48.515Z,70.55
2019-05-09T09:04:48.932Z,71.12
2019-05-09T09:05:48.585Z,70.55
2019-05-09T09:06:48.326Z,70.31
2019-05-09T09:07:49.021Z,70.45
2019-05-09T09:08:48.423Z,71.73
2019-05-09T09:09:48.362Z,70.25
2019-05-09T09:10:48.871Z,70.45
2019-05-09T09:11:47.967Z,71.84
2019-05-09T09:12:48.028Z,70.92
2019-05-09T09:13:48.344Z,70.96
2019-05-09T09:14:48.014Z,70.96
2019-05-09T09:16:05.315Z,71.16
2019-05-09T09:16:48.982Z,70.86
2019-05-09T09:17:49.107Z,70.55
2019-05-09T09:18:48.261Z,70.96
2019-05-09T09:19:48.074Z,70.96
2019-05-09T09:20:48.539Z,72.31
2019-05-09T09:21:49.728Z,73.30
2019-05-09T09:22:48.172Z,71.57
2019-05-09T09:23:50.683Z,71.87
2019-05-09T09:24:48.306Z,72.78
2019-05-09T09:25:48.707Z,72.78
2019-05-09T09:26:48.144Z,73.09
2019-05-09T09:27:51.009Z,74.11
2019-05-09T09:28:48.410Z,73.60
2019-05-09T09:29:48.230Z,73.50
2019-05-09T09:30:48.568Z,74.01
2019-05-09T09:31:48.298Z,74.52
2019-05-09T09:32:48.060Z,74.01
2019-05-09T09:33:48.141Z,73.91
2019-05-09T09:34:48.469Z,74.01
2019-05-09T09:35:48.978Z,74.62
2019-05-09T09:36:48.129Z,74.58
2019-05-09T09:37:51.373Z,75.94
2019-05-09T09:38:48.194Z,75.09
2019-05-09T09:39:48.806Z,75.19
2019-05-09T09:40:47.938Z,74.75
2019-05-09T09:41:48.321Z,74.55
2019-05-09T09:42:48.989Z,73.50
2019-05-09T09:43:47.855Z,73.19
2019-05-09T09:44:48.144Z,73.50
2019-05-09T09:45:48.276Z,73.53
2019-05-09T09:46:48.607Z,73.90
2019-05-09T09:47:48.346Z,73.80
2019-05-09T09:48:48.176Z,74.07
2019-05-09T09:49:49.021Z,73.97
2019-05-09T09:50:51.424Z,73.97
2019-05-09T09:51:48.510Z,72.96
2019-05-09T09:52:49.175Z,73.22
2019-05-09T09:53:48.905Z,72.92
2019-05-09T09:54:48.178Z,72.75
2019-05-09T09:55:47.846Z,72.92
2019-05-09T09:56:47.931Z,72.85
2019-05-09T09:57:48.438Z,72.85
2019-05-09T09:58:48.317Z,73.26
2019-05-09T09:59:48.480Z,73.02
2019-05-09T10:00:48.453Z,72.65
2019-05-09T10:01:47.872Z,72.52
2019-05-09T10:02:48.211Z,72.31
2019-05-09T10:03:47.465Z,71.40
2019-05-09T10:04:47.407Z,71.73
2019-05-09T10:05:48.603Z,72.82
2019-05-09T10:06:48.243Z,71.91
2019-05-09T10:07:47.749Z,73.06
2019-05-09T10:08:49.040Z,72.14
2019-05-09T10:09:47.989Z,72.65
2019-05-09T10:10:48.359Z,72.34
2019-05-09T10:11:48.305Z,72.52
2019-05-09T10:12:49.415Z,72.11
2019-05-09T10:13:48.055Z,72.31
2019-05-09T10:14:47.269Z,71.57
2019-05-09T10:15:47.540Z,71.23
2019-05-09T10:16:47.867Z,71.44
2019-05-09T10:17:47.774Z,71.23
2019-05-09T10:18:47.221Z,72.14
2019-05-09T10:19:48.211Z,70.72
2019-05-09T10:20:48.494Z,70.32
2019-05-09T10:21:48.561Z,70.69
2019-05-09T10:22:58.562Z,70.89
2019-05-09T10:23:48.443Z,71.37
2019-05-09T10:24:47.847Z,71.23
2019-05-09T10:25:47.142Z,69.21
2019-05-09T10:26:47.132Z,69.65
2019-05-09T10:27:47.973Z,69.04
2019-05-09T10:28:48.582Z,68.50
2019-05-09T10:29:48.002Z,70.09
2019-05-09T10:30:48.480Z,69.65
2019-05-09T10:31:48.754Z,68.23
2019-05-09T10:32:47.654Z,67.96
2019-05-09T10:33:48.199Z,68.16
2019-05-09T10:34:48.789Z,68.37
2019-05-09T10:35:47.901Z,68.26
2019-05-09T10:36:47.624Z,69.58
2019-05-09T10:37:48.474Z,69.95
2019-05-09T10:38:47.786Z,68.03
2019-05-09T10:39:49.044Z,68.00
2019-05-09T10:40:48.462Z,67.29
2019-05-09T10:41:48.252Z,67.43
2019-05-09T10:42:48.291Z,68.10
2019-05-09T10:43:48.617Z,66.78
2019-05-09T10:44:48.872Z,67.39
2019-05-09T10:45:48.412Z,67.52
2019-05-09T10:46:56.397Z,67.72
2019-05-09T10:47:48.349Z,68.30
2019-05-09T10:48:47.938Z,68.30
2019-05-09T10:49:48.789Z,68.00
2019-05-09T10:50:54.295Z,68.10
2019-05-09T10:51:48.502Z,68.00
2019-05-09T10:52:48.205Z,67.56
2019-05-09T10:53:48.162Z,66.96
2019-05-09T10:54:46.873Z,66.65
2019-05-09T10:55:48.094Z,65.44
2019-05-09T10:56:48.761Z,66.05
2019-05-09T10:57:52.546Z,66.55
2019-05-09T10:58:48.388Z,67.02
2019-05-09T10:59:48.255Z,65.41
2019-05-09T11:00:48.341Z,65.08
2019-05-09T11:01:49.391Z,65.38
2019-05-09T11:02:48.366Z,66.29
2019-05-09T11:03:48.288Z,64.87
2019-05-09T11:04:49.075Z,64.37
2019-05-09T11:05:46.753Z,66.16
2019-05-09T11:06:46.682Z,64.84
2019-05-09T11:07:46.680Z,64.14
2019-05-09T11:08:47.642Z,65.85
2019-05-09T11:09:48.047Z,63.50
2019-05-09T11:10:47.475Z,64.01
2019-05-09T11:11:48.429Z,62.52
2019-05-09T11:12:47.862Z,63.67
2019-05-09T11:13:48.130Z,63.96
2019-05-09T11:14:48.405Z,65.31
2019-05-09T11:15:48.029Z,66.12
2019-05-09T11:16:51.121Z,66.08
2019-05-09T11:17:47.574Z,64.17
2019-05-09T11:18:48.217Z,64.84
2019-05-09T11:19:48.279Z,64.92
2019-05-09T11:20:46.542Z,64.01
2019-05-09T11:21:47.845Z,62.46
2019-05-09T11:22:46.519Z,63.57
2019-05-09T11:23:48.787Z,62.57
2019-05-09T11:24:50.954Z,63.10
2019-05-09T11:25:47.294Z,61.79
2019-05-09T11:26:48.140Z,62.09
2019-05-09T11:27:48.638Z,63.20
2019-05-09T11:28:47.458Z,63.33
2019-05-09T11:29:49.734Z,63.23
2019-05-09T11:30:47.651Z,63.73
2019-05-09T11:31:47.735Z,64.44
2019-05-09T11:32:48.080Z,63.03
2019-05-09T11:33:48.353Z,64.81
2019-05-09T11:34:48.649Z,65.44
2019-05-09T11:35:47.993Z,66.55
2019-05-09T11:36:46.357Z,65.34
2019-05-09T11:37:48.057Z,65.98
2019-05-09T11:38:49.112Z,66.58
2019-05-09T11:39:48.201Z,67.90
2019-05-09T11:40:48.210Z,65.98
2019-05-09T11:41:48.658Z,65.67
2019-05-09T11:42:48.283Z,66.61
2019-05-09T11:43:48.550Z,67.43
2019-05-09T11:44:46.274Z,66.92
2019-05-09T11:45:47.876Z,66.18
2019-05-09T11:46:47.741Z,64.36
2019-05-09T11:47:46.765Z,64.39
2019-05-09T11:48:46.232Z,64.90
2019-05-09T11:49:48.065Z,65.30
2019-05-09T11:50:47.710Z,64.87
2019-05-09T11:51:48.260Z,65.78
2019-05-09T11:52:48.923Z,63.65
2019-05-09T11:53:48.657Z,64.16
2019-05-09T11:54:48.215Z,62.44
2019-05-09T11:55:48.152Z,63.55
2019-05-09T11:56:48.143Z,63.45
2019-05-09T11:57:48.587Z,65.47
2019-05-09T11:58:48.191Z,65.84
2019-05-09T11:59:48.033Z,65.81
2019-05-09T12:00:48.114Z,64.33
2019-05-09T12:01:48.255Z,63.32
2019-05-09T12:02:46.068Z,64.33
2019-05-09T12:03:49.930Z,63.49
2019-05-09T12:04:48.692Z,62.18
2019-05-09T12:05:47.595Z,61.98
2019-05-09T12:06:46.023Z,61.47
2019-05-09T12:07:46.010Z,62.65
2019-05-09T12:08:48.322Z,62.45
2019-05-09T12:09:48.656Z,59.93
2019-05-09T12:10:45.985Z,61.14
2019-05-09T12:11:48.311Z,62.05
2019-05-09T12:12:47.798Z,60.33
2019-05-09T12:13:48.444Z,60.94
2019-05-09T12:14:48.224Z,61.95
2019-05-09T12:15:48.733Z,61.95
2019-05-09T12:16:47.998Z,63.33
2019-05-09T12:17:56.578Z,63.03
2019-05-09T12:18:48.767Z,62.52
2019-05-09T12:19:45.878Z,63.43
2019-05-09T12:20:48.273Z,63.23
2019-05-09T12:21:48.086Z,64.24
2019-05-09T12:22:48.323Z,63.26
2019-05-09T12:23:48.027Z,63.67
2019-05-09T12:24:47.987Z,63.46
2019-05-09T12:25:45.812Z,63.76
2019-05-09T12:26:48.183Z,64.50
2019-05-09T12:27:48.515Z,65.01
2019-05-09T12:28:48.410Z,65.81
2019-05-09T12:29:48.214Z,65.01
2019-05-09T12:30:45.759Z,66.12
2019-05-09T12:31:48.289Z,66.02
2019-05-09T12:32:45.736Z,66.25
2019-05-09T12:33:48.330Z,65.84
2019-05-09T12:34:47.837Z,66.86
2019-05-09T12:35:47.756Z,67.36
2019-05-09T12:36:49.086Z,66.65
2019-05-09T12:37:45.678Z,67.26
2019-05-09T12:38:49.365Z,67.02
2019-05-09T12:39:48.035Z,66.48
2019-05-09T12:40:48.077Z,67.19
2019-05-09T12:41:48.211Z,67.60
2019-05-09T12:42:45.668Z,66.99
2019-05-09T12:43:45.620Z,67.32
2019-05-09T12:44:45.604Z,67.43
2019-05-09T12:45:47.837Z,68.33
2019-05-09T12:46:45.584Z,68.03
2019-05-09T12:47:45.597Z,69.58
2019-05-09T12:48:47.963Z,68.47
2019-05-09T12:49:45.552Z,69.92
2019-05-09T12:50:45.544Z,69.71
2019-05-09T12:51:45.572Z,70.65
2019-05-09T12:52:45.521Z,71.26